createdAt,value
2022-12-14T00:00:22.399Z,61.23
2022-12-14T00:02:51.441Z,61.78
2022-12-14T00:05:19.867Z,61.52
2022-12-14T00:07:49.030Z,61.98
2022-12-14T00:10:20.434Z,62.08
2022-12-14T00:12:48.138Z,62.64
2022-12-14T00:15:15.908Z,63.14
2022-12-14T00:17:43.539Z,62.78
2022-12-14T00:20:13.137Z,62.78
2022-12-14T00:22:40.794Z,63.25
2022-12-14T00:25:09.132Z,63.46
2022-12-14T00:27:36.798Z,63.31
2022-12-14T00:30:04.788Z,63.72
2022-12-14T00:32:32.455Z,63.95
2022-12-14T00:35:02.675Z,63.82
2022-12-14T00:37:31.649Z,63.36
2022-12-14T00:39:59.268Z,63.53
2022-12-14T00:42:26.911Z,63.66
2022-12-14T00:44:54.566Z,64.03
2022-12-14T00:47:22.291Z,63.89
2022-12-14T00:49:49.991Z,63.58
2022-12-14T00:52:17.622Z,63.19
2022-12-14T00:54:46.689Z,62.92
2022-12-14T00:57:14.575Z,62.52
2022-12-14T00:59:42.258Z,62.34
2022-12-14T01:02:10.172Z,62.03
2022-12-14T01:04:38.004Z,61.87
2022-12-14T01:07:06.974Z,62.70
2022-12-14T01:09:34.779Z,62.78
2022-12-14T01:12:03.756Z,63.40
2022-12-14T01:14:31.435Z,63.22
2022-12-14T01:16:59.083Z,63.28
2022-12-14T01:19:26.679Z,63.99
2022-12-14T01:21:57.014Z,63.95
2022-12-14T01:24:25.907Z,64.33
2022-12-14T01:26:53.560Z,64.60
2022-12-14T01:29:22.593Z,64.36
2022-12-14T01:31:50.303Z,64.57
2022-12-14T01:34:20.460Z,64.56
2022-12-14T01:36:48.134Z,64.73
2022-12-14T01:39:17.140Z,64.62
2022-12-14T01:41:46.724Z,64.51
2022-12-14T01:44:55.531Z,64.75
2022-12-14T01:47:29.512Z,64.40
2022-12-14T01:50:04.185Z,64.06
2022-12-14T01:52:37.739Z,64.50
2022-12-14T01:55:11.215Z,64.66
2022-12-14T01:57:43.313Z,64.53
2022-12-14T02:00:14.356Z,64.09
2022-12-14T02:02:45.322Z,64.26
2022-12-14T02:05:15.080Z,64.38
2022-12-14T02:07:49.020Z,64.67
2022-12-14T02:10:17.233Z,64.42
2022-12-14T02:12:50.121Z,62.99
2022-12-14T02:15:19.751Z,61.46
2022-12-14T02:17:49.238Z,60.95
2022-12-14T02:20:17.853Z,60.84
2022-12-14T02:23:21.214Z,61.82
2022-12-14T02:26:37.667Z,61.66
2022-12-14T02:29:34.097Z,63.03
2022-12-14T02:32:16.490Z,63.41
2022-12-14T02:34:57.414Z,63.88
2022-12-14T02:37:34.594Z,64.36
2022-12-14T02:40:22.008Z,64.21
2022-12-14T02:42:58.488Z,63.21
2022-12-14T02:45:36.202Z,62.78
2022-12-14T02:48:09.686Z,63.04
2022-12-14T02:50:44.224Z,62.69
2022-12-14T02:53:21.567Z,61.49
2022-12-14T02:55:52.443Z,61.31
2022-12-14T02:58:24.354Z,61.50
2022-12-14T03:00:55.308Z,62.39
2022-12-14T03:03:23.157Z,62.55
2022-12-14T03:05:58.032Z,63.03
2022-12-14T03:08:28.819Z,64.11
2022-12-14T03:10:59.951Z,64.33
2022-12-14T03:13:31.524Z,64.13
2022-12-14T03:16:05.788Z,63.97
2022-12-14T03:18:38.482Z,62.76
2022-12-14T03:21:11.712Z,62.06
2022-12-14T03:23:42.307Z,61.02
2022-12-14T03:26:17.138Z,61.17
2022-12-14T03:28:47.662Z,61.47
2022-12-14T03:31:23.301Z,62.30
2022-12-14T03:33:55.679Z,63.19
2022-12-14T03:36:29.580Z,62.88
2022-12-14T03:39:01.306Z,63.48
2022-12-14T03:41:36.597Z,63.59
2022-12-14T03:44:19.337Z,64.20
2022-12-14T03:46:57.656Z,64.46
2022-12-14T03:49:38.858Z,64.14
2022-12-14T03:52:13.652Z,63.68
2022-12-14T03:54:50.610Z,64.07
2022-12-14T03:57:29.485Z,64.41
2022-12-14T04:00:03.719Z,64.27
2022-12-14T04:02:41.036Z,64.70
2022-12-14T04:05:15.107Z,64.62
2022-12-14T04:07:49.211Z,64.62
2022-12-14T04:10:37.734Z,64.32
2022-12-14T04:13:26.391Z,64.98
2022-12-14T04:16:19.440Z,64.85
2022-12-14T04:19:00.516Z,64.74
2022-12-14T04:21:36.909Z,64.15
2022-12-14T04:24:28.255Z,62.05
2022-12-14T04:26:59.242Z,61.49
2022-12-14T04:29:48.389Z,61.21
2022-12-14T04:32:20.374Z,61.15
2022-12-14T04:34:53.241Z,61.38
2022-12-14T04:37:24.675Z,61.39
2022-12-14T04:39:54.968Z,61.80
2022-12-14T04:42:28.214Z,61.54
2022-12-14T04:45:00.624Z,62.07
2022-12-14T04:47:33.533Z,61.67
2022-12-14T04:50:07.190Z,62.00
2022-12-14T04:52:40.710Z,62.43
2022-12-14T04:55:15.863Z,61.71
2022-12-14T04:57:50.798Z,62.00
2022-12-14T05:00:18.838Z,61.81
2022-12-14T05:03:07.060Z,62.94
2022-12-14T05:05:45.657Z,63.56
2022-12-14T05:08:21.697Z,63.52
2022-12-14T05:11:00.889Z,62.68
2022-12-14T05:13:48.875Z,62.86
2022-12-14T05:16:18.312Z,63.63
2022-12-14T05:18:46.371Z,64.00
2022-12-14T05:21:35.516Z,64.20
2022-12-14T05:24:04.786Z,63.97
2022-12-14T05:26:32.745Z,62.78
2022-12-14T05:29:00.368Z,61.99
2022-12-14T05:31:28.034Z,61.68
2022-12-14T05:33:55.656Z,62.85
2022-12-14T05:36:24.832Z,63.12
2022-12-14T05:38:52.533Z,63.23
2022-12-14T05:41:20.161Z,63.97
2022-12-14T05:43:49.212Z,64.05
2022-12-14T05:46:17.017Z,63.94
2022-12-14T05:48:49.156Z,64.44
2022-12-14T05:51:17.875Z,64.82
2022-12-14T05:53:46.911Z,65.16
2022-12-14T05:56:14.587Z,65.42
2022-12-14T05:58:42.267Z,65.53
2022-12-14T06:01:18.496Z,65.49
2022-12-14T06:03:46.760Z,65.48
2022-12-14T06:06:15.718Z,65.41
2022-12-14T06:08:44.901Z,65.24
2022-12-14T06:11:15.778Z,64.96
2022-12-14T06:13:44.296Z,64.91
2022-12-14T06:16:14.174Z,65.33
2022-12-14T06:18:43.736Z,65.34
2022-12-14T06:21:11.529Z,65.36
2022-12-14T06:23:39.211Z,64.92
2022-12-14T06:26:07.558Z,64.42
2022-12-14T06:28:36.960Z,63.36
2022-12-14T06:31:05.845Z,63.78
2022-12-14T06:33:34.972Z,63.17
2022-12-14T06:36:03.921Z,63.20
2022-12-14T06:38:31.573Z,63.08
2022-12-14T06:40:59.213Z,62.78
2022-12-14T06:43:27.677Z,62.81
2022-12-14T06:45:57.438Z,63.56
2022-12-14T06:48:25.075Z,63.65
2022-12-14T06:50:52.707Z,65.20
2022-12-14T06:53:20.320Z,65.70
2022-12-14T06:55:49.296Z,66.08
2022-12-14T06:58:17.101Z,66.92
2022-12-14T07:00:45.089Z,67.24
2022-12-14T07:03:14.061Z,66.52
2022-12-14T07:05:45.779Z,66.34
2022-12-14T07:08:16.444Z,66.66
2022-12-14T07:10:44.100Z,66.68
2022-12-14T07:13:11.694Z,66.97
2022-12-14T07:15:39.511Z,65.91
2022-12-14T07:18:07.243Z,66.52
2022-12-14T07:20:36.251Z,66.06
2022-12-14T07:23:03.949Z,66.59
2022-12-14T07:25:31.653Z,65.85
2022-12-14T07:27:59.237Z,66.18
2022-12-14T07:30:26.915Z,66.39
2022-12-14T07:32:54.532Z,66.68
2022-12-14T07:35:22.138Z,66.23
2022-12-14T07:37:51.843Z,66.85
2022-12-14T07:40:19.481Z,67.28
2022-12-14T07:42:49.473Z,67.80
2022-12-14T07:45:17.148Z,67.39
2022-12-14T07:47:44.775Z,65.96
2022-12-14T07:50:12.361Z,66.41
2022-12-14T07:52:39.943Z,66.65
2022-12-14T07:55:10.309Z,67.53
2022-12-14T07:57:38.104Z,67.15
2022-12-14T08:00:06.637Z,67.81
2022-12-14T08:02:34.333Z,67.29
2022-12-14T08:05:02.082Z,67.13
2022-12-14T08:07:31.072Z,67.58
2022-12-14T08:09:58.658Z,68.69
2022-12-14T08:12:27.612Z,69.19
2022-12-14T08:14:55.223Z,68.79
2022-12-14T08:17:22.782Z,68.88
2022-12-14T08:19:50.365Z,69.07
2022-12-14T08:22:18.044Z,70.13
2022-12-14T08:24:49.583Z,70.46
2022-12-14T08:27:17.369Z,70.29
2022-12-14T08:29:46.345Z,70.30
2022-12-14T08:32:14.059Z,70.01
2022-12-14T08:34:41.633Z,69.62
2022-12-14T08:37:09.259Z,68.83
2022-12-14T08:39:36.891Z,68.36
2022-12-14T08:42:04.597Z,69.05
2022-12-14T08:44:32.244Z,69.39
2022-12-14T08:47:01.308Z,69.68
2022-12-14T08:49:32.601Z,69.15
2022-12-14T08:52:00.559Z,68.86
2022-12-14T08:54:28.139Z,69.81
2022-12-14T08:56:55.744Z,69.28
2022-12-14T08:59:52.153Z,68.58
2022-12-14T09:02:12.296Z,68.72
2022-12-14T09:04:39.936Z,69.08
2022-12-14T09:07:07.543Z,69.89
2022-12-14T09:09:37.215Z,69.07
2022-12-14T09:12:06.720Z,69.91
2022-12-14T09:14:34.466Z,69.15
2022-12-14T09:17:02.898Z,70.41
2022-12-14T09:19:31.928Z,69.33
2022-12-14T09:21:59.553Z,68.74
2022-12-14T09:24:28.377Z,69.24
2022-12-14T09:26:56.001Z,69.16
2022-12-14T09:29:23.621Z,69.91
2022-12-14T09:31:51.271Z,70.41
2022-12-14T09:34:19.271Z,69.90
2022-12-14T09:36:49.137Z,69.75
2022-12-14T09:39:16.834Z,70.49
2022-12-14T09:42:01.145Z,70.77
2022-12-14T09:44:41.796Z,71.38
2022-12-14T09:47:16.148Z,70.63
2022-12-14T09:49:48.072Z,71.08
2022-12-14T09:52:26.209Z,71.48
2022-12-14T09:54:55.525Z,71.38
2022-12-14T09:57:30.074Z,71.81
2022-12-14T09:59:57.805Z,71.88
2022-12-14T10:02:36.659Z,71.43
2022-12-14T10:05:20.949Z,71.66
2022-12-14T10:08:02.713Z,72.33
2022-12-14T10:10:38.558Z,71.67
2022-12-14T10:13:18.727Z,71.54
2022-12-14T10:16:01.093Z,71.54
2022-12-14T10:19:02.159Z,71.40
2022-12-14T10:21:42.592Z,70.28
2022-12-14T10:24:19.306Z,70.21
2022-12-14T10:26:52.981Z,70.86
2022-12-14T10:29:32.741Z,71.20
2022-12-14T10:32:07.776Z,70.94
2022-12-14T10:34:36.212Z,70.71
2022-12-14T10:37:13.086Z,70.14
2022-12-14T10:39:52.117Z,70.26
2022-12-14T10:42:29.091Z,70.68
2022-12-14T10:45:39.161Z,70.30
2022-12-14T10:47:58.423Z,72.12
2022-12-14T10:50:38.085Z,70.56
2022-12-14T10:53:12.002Z,71.34
2022-12-14T10:55:44.041Z,70.73
2022-12-14T10:58:12.161Z,71.59
2022-12-14T11:00:39.874Z,71.21
2022-12-14T11:03:14.942Z,71.61
2022-12-14T11:05:50.140Z,73.47
2022-12-14T11:08:40.527Z,71.67
2022-12-14T11:11:16.997Z,72.75
2022-12-14T11:13:50.662Z,70.86
2022-12-14T11:16:26.736Z,72.41
2022-12-14T11:19:01.677Z,72.63
2022-12-14T11:21:35.318Z,72.43
2022-12-14T11:24:03.172Z,70.43
2022-12-14T11:26:36.454Z,71.54
2022-12-14T11:29:17.541Z,71.73
2022-12-14T11:31:47.016Z,72.25
2022-12-14T11:34:31.023Z,72.22
2022-12-14T11:37:12.670Z,73.06
2022-12-14T11:39:41.929Z,72.79
2022-12-14T11:42:20.322Z,72.88
2022-12-14T11:44:49.918Z,72.56
2022-12-14T11:47:19.388Z,72.79
2022-12-14T11:49:48.878Z,72.91
2022-12-14T11:52:19.757Z,72.36
2022-12-14T11:54:51.785Z,72.25
2022-12-14T11:57:28.850Z,72.20
2022-12-14T11:59:59.565Z,73.08
2022-12-14T12:02:34.409Z,72.52
2022-12-14T12:05:07.721Z,72.27
2022-12-14T12:07:37.398Z,71.98
2022-12-14T12:10:18.216Z,71.83
2022-12-14T12:12:54.544Z,72.29
2022-12-14T12:15:25.766Z,72.14
2022-12-14T12:17:56.454Z,72.23
2022-12-14T12:20:33.279Z,72.73
2022-12-14T12:23:08.583Z,72.16
2022-12-14T12:25:38.663Z,71.98
2022-12-14T12:28:19.550Z,72.10
2022-12-14T12:30:52.539Z,72.62
2022-12-14T12:33:29.091Z,72.47
2022-12-14T12:36:00.912Z,72.68
2022-12-14T12:38:42.193Z,72.43
2022-12-14T12:41:24.270Z,72.29
2022-12-14T12:43:57.544Z,72.25
2022-12-14T12:46:29.114Z,72.81
2022-12-14T12:49:05.641Z,72.44
2022-12-14T12:51:40.376Z,72.76
2022-12-14T12:54:12.145Z,72.86
2022-12-14T12:56:48.169Z,73.16
2022-12-14T12:59:21.778Z,72.15
2022-12-14T13:01:55.659Z,72.57
2022-12-14T13:04:32.121Z,73.11
2022-12-14T13:07:05.203Z,72.37
2022-12-14T13:09:39.693Z,73.00
2022-12-14T13:12:14.846Z,72.63
2022-12-14T13:14:49.832Z,72.84
2022-12-14T13:17:30.370Z,72.72
2022-12-14T13:20:00.609Z,73.64
2022-12-14T13:22:30.878Z,73.22
2022-12-14T13:25:06.413Z,73.73
2022-12-14T13:27:52.505Z,74.19
2022-12-14T13:30:31.358Z,73.70
2022-12-14T13:33:21.402Z,73.74
2022-12-14T13:36:10.835Z,74.01
2022-12-14T13:39:00.630Z,74.03
2022-12-14T13:41:37.384Z,74.45
2022-12-14T13:44:24.983Z,74.00
2022-12-14T13:47:02.812Z,74.08
2022-12-14T13:49:31.238Z,74.20
2022-12-14T13:51:59.107Z,73.29
2022-12-14T13:54:31.192Z,73.79
2022-12-14T13:57:05.306Z,74.42
2022-12-14T13:59:38.478Z,75.37
2022-12-14T14:02:30.398Z,76.19
2022-12-14T14:05:31.704Z,75.54
2022-12-14T14:08:02.707Z,74.00
2022-12-14T14:10:33.928Z,74.13
2022-12-14T14:13:03.059Z,74.28
2022-12-14T14:15:51.990Z,74.36
2022-12-14T14:18:31.318Z,73.91
2022-12-14T14:21:31.270Z,74.55
2022-12-14T14:24:01.332Z,74.90
2022-12-14T14:26:31.227Z,73.94
2022-12-14T14:29:21.248Z,74.11
2022-12-14T14:31:52.704Z,75.58
2022-12-14T14:34:33.650Z,75.17
2022-12-14T14:37:13.607Z,75.16
2022-12-14T14:40:07.150Z,74.62
2022-12-14T14:42:34.661Z,75.29
2022-12-14T14:45:05.213Z,76.60
2022-12-14T14:47:35.956Z,76.65
2022-12-14T14:50:09.202Z,76.15
2022-12-14T14:53:12.305Z,75.89
2022-12-14T14:56:06.991Z,77.30
2022-12-14T14:58:37.191Z,77.31
2022-12-14T15:01:21.304Z,77.79
2022-12-14T15:03:54.168Z,77.51
2022-12-14T15:06:27.422Z,77.85
2022-12-14T15:09:00.768Z,77.77
2022-12-14T15:11:32.454Z,77.09
2022-12-14T15:14:03.781Z,76.96
2022-12-14T15:16:33.648Z,78.06
2022-12-14T15:19:35.924Z,78.35
2022-12-14T15:22:07.608Z,78.18
2022-12-14T15:24:39.322Z,77.97
2022-12-14T15:27:19.098Z,77.74
2022-12-14T15:29:49.426Z,77.52
2022-12-14T15:32:19.455Z,77.57
2022-12-14T15:34:53.117Z,77.73
2022-12-14T15:37:28.940Z,77.59
2022-12-14T15:40:05.520Z,79.44
2022-12-14T15:42:33.205Z,78.24
2022-12-14T15:45:13.601Z,78.50
2022-12-14T15:47:41.201Z,78.69
2022-12-14T15:50:21.935Z,77.77
2022-12-14T15:52:53.494Z,77.50
2022-12-14T15:55:30.913Z,77.91
2022-12-14T15:58:00.998Z,77.98
2022-12-14T16:00:28.968Z,77.27
2022-12-14T16:02:56.884Z,77.74
2022-12-14T16:05:24.723Z,76.90
2022-12-14T16:07:57.601Z,76.70
2022-12-14T16:10:28.311Z,76.30
2022-12-14T16:13:01.391Z,76.79
2022-12-14T16:15:30.256Z,76.46
2022-12-14T16:18:02.705Z,76.26
2022-12-14T16:20:32.853Z,77.51
2022-12-14T16:23:05.834Z,79.68
2022-12-14T16:25:35.673Z,79.78
2022-12-14T16:28:22.169Z,80.21
2022-12-14T16:30:56.116Z,80.37
2022-12-14T16:33:25.493Z,80.25
2022-12-14T16:36:02.398Z,79.89
2022-12-14T16:38:32.083Z,80.60
2022-12-14T16:41:01.765Z,79.96
2022-12-14T16:43:33.871Z,79.84
2022-12-14T16:46:17.384Z,79.66
2022-12-14T16:48:50.101Z,79.19
2022-12-14T16:54:29.152Z,78.22
2022-12-14T16:57:01.227Z,80.31
2022-12-14T16:59:35.872Z,80.56
2022-12-14T17:02:04.090Z,80.19
2022-12-14T17:04:36.648Z,80.14
2022-12-14T17:07:04.911Z,80.17
2022-12-14T17:09:35.419Z,80.04
2022-12-14T17:12:12.332Z,80.43
2022-12-14T17:14:43.519Z,80.26
2022-12-14T17:17:20.451Z,80.80
2022-12-14T17:19:48.194Z,80.25
2022-12-14T17:22:27.695Z,80.50
2022-12-14T17:24:57.156Z,80.45
2022-12-14T17:27:26.645Z,80.21
2022-12-14T17:29:56.975Z,80.72
2022-12-14T17:32:28.789Z,80.77
2022-12-14T17:34:56.429Z,80.65
2022-12-14T17:37:27.660Z,80.70
2022-12-14T17:40:00.712Z,81.68
2022-12-14T17:42:28.376Z,80.89
2022-12-14T17:44:57.814Z,81.67
2022-12-14T17:47:26.144Z,82.54
2022-12-14T17:49:53.810Z,82.81
2022-12-14T17:52:24.971Z,82.06
2022-12-14T17:54:52.668Z,82.62
2022-12-14T17:57:23.598Z,82.56
2022-12-14T18:00:13.082Z,82.06
2022-12-14T18:02:41.626Z,82.42
2022-12-14T18:05:22.912Z,82.35
2022-12-14T18:07:50.507Z,83.00
2022-12-14T18:10:19.424Z,82.88
2022-12-14T18:12:48.491Z,82.60
2022-12-14T18:15:19.365Z,82.13
2022-12-14T18:17:49.287Z,81.87
2022-12-14T18:20:17.493Z,81.86
2022-12-14T18:22:49.736Z,82.40
2022-12-14T18:25:31.759Z,82.29
2022-12-14T18:28:01.735Z,81.60
2022-12-14T18:30:36.810Z,81.60
2022-12-14T18:33:07.712Z,81.48
2022-12-14T18:35:36.299Z,81.66
2022-12-14T18:38:06.700Z,81.48
2022-12-14T18:40:34.727Z,81.60
2022-12-14T18:43:04.381Z,81.67
2022-12-14T18:45:34.858Z,81.97
2022-12-14T18:48:05.402Z,81.81
2022-12-14T18:50:34.602Z,81.78
2022-12-14T18:53:05.901Z,81.75
2022-12-14T18:55:35.074Z,81.62
2022-12-14T18:58:04.526Z,81.24
2022-12-14T19:00:34.098Z,81.01
2022-12-14T19:03:03.306Z,80.41
2022-12-14T19:05:31.808Z,80.66
2022-12-14T19:08:00.511Z,80.52
2022-12-14T19:10:30.908Z,80.06
2022-12-14T19:12:59.462Z,79.02
2022-12-14T19:15:30.207Z,79.36
2022-12-14T19:17:57.937Z,79.45
2022-12-14T19:20:26.430Z,79.11
2022-12-14T19:22:54.680Z,79.39
2022-12-14T19:25:23.437Z,79.54
2022-12-14T19:30:43.953Z,79.84
2022-12-14T19:33:11.647Z,79.38
2022-12-14T19:35:41.346Z,79.08
2022-12-14T19:38:13.763Z,79.39
2022-12-14T19:40:42.232Z,79.23
2022-12-14T19:43:10.056Z,79.79
2022-12-14T19:45:39.507Z,79.54
2022-12-14T19:48:12.945Z,80.13
2022-12-14T19:50:41.089Z,79.31
2022-12-14T19:53:08.793Z,79.29
2022-12-14T19:55:36.751Z,79.85
2022-12-14T19:58:04.437Z,80.33
2022-12-14T20:00:32.034Z,80.18
2022-12-14T20:02:59.853Z,79.83
2022-12-14T20:05:28.957Z,80.29
2022-12-14T20:07:56.570Z,80.39
2022-12-14T20:10:24.252Z,79.72
2022-12-14T20:12:51.910Z,80.01
2022-12-14T20:15:19.590Z,79.50
2022-12-14T20:17:47.308Z,79.55
2022-12-14T20:20:15.085Z,80.03
2022-12-14T20:22:44.045Z,79.81
2022-12-14T20:25:11.642Z,79.61
2022-12-14T20:27:40.925Z,79.94
2022-12-14T20:30:10.240Z,79.68
2022-12-14T20:32:39.892Z,79.88
2022-12-14T20:35:09.910Z,80.06
2022-12-14T20:37:37.514Z,80.17
2022-12-14T20:40:10.558Z,80.12
2022-12-14T20:42:38.360Z,80.09
2022-12-14T20:45:07.744Z,79.76
2022-12-14T20:47:35.880Z,79.85
2022-12-14T20:50:03.595Z,80.22
2022-12-14T20:52:31.215Z,79.78
2022-12-14T20:54:58.979Z,79.73
2022-12-14T20:57:28.392Z,79.52
2022-12-14T20:59:59.263Z,79.55
2022-12-14T21:02:27.310Z,79.78
2022-12-14T21:04:55.118Z,79.91
2022-12-14T21:07:26.137Z,80.00
2022-12-14T21:09:54.373Z,80.00
2022-12-14T21:12:21.037Z,80.02
2022-12-14T21:14:53.041Z,80.40
2022-12-14T21:17:21.787Z,80.75
2022-12-14T21:19:49.458Z,80.55
2022-12-14T21:22:19.532Z,80.69
2022-12-14T21:25:07.464Z,80.74
2022-12-14T21:27:38.126Z,80.70
2022-12-14T21:30:10.487Z,80.88
2022-12-14T21:32:38.802Z,80.41
2022-12-14T21:35:07.475Z,80.01
2022-12-14T21:37:35.291Z,80.25
2022-12-14T21:40:03.857Z,80.49
2022-12-14T21:42:30.629Z,81.17
2022-12-14T21:44:58.226Z,81.18
2022-12-14T21:47:29.505Z,80.80
2022-12-14T21:50:01.449Z,80.38
2022-12-14T21:52:29.321Z,80.40
2022-12-14T21:54:58.874Z,79.63
2022-12-14T21:57:50.319Z,78.82
2022-12-14T22:00:19.339Z,78.83
2022-12-14T22:02:48.510Z,78.87
2022-12-14T22:05:17.714Z,79.23
2022-12-14T22:07:47.905Z,79.66
2022-12-14T22:10:19.894Z,79.22
2022-12-14T22:12:50.641Z,79.42
2022-12-14T22:15:18.235Z,79.62
2022-12-14T22:17:45.995Z,78.96
2022-12-14T22:20:15.495Z,79.63
2022-12-14T22:22:43.098Z,80.07
2022-12-14T22:25:10.700Z,79.80
2022-12-14T22:27:40.000Z,79.82
2022-12-14T22:30:09.246Z,80.07
2022-12-14T22:32:36.911Z,80.59
2022-12-14T22:35:05.320Z,80.57
2022-12-14T22:37:34.238Z,79.97
2022-12-14T22:40:01.931Z,80.21
2022-12-14T22:42:31.770Z,80.47
2022-12-14T22:44:59.389Z,80.55
2022-12-14T22:47:27.109Z,80.41
2022-12-14T22:49:54.771Z,80.71
2022-12-14T22:52:25.012Z,80.18
2022-12-14T22:54:54.494Z,80.39
2022-12-14T22:57:22.930Z,80.51
2022-12-14T22:59:57.251Z,80.31
2022-12-14T23:02:25.124Z,80.21
2022-12-14T23:04:53.341Z,80.28
2022-12-14T23:07:21.019Z,80.08
2022-12-14T23:10:06.166Z,80.04
2022-12-14T23:12:52.663Z,80.16
2022-12-14T23:15:38.046Z,79.67
2022-12-14T23:18:25.463Z,79.65
2022-12-14T23:21:11.387Z,79.97
2022-12-14T23:23:57.187Z,80.01
2022-12-14T23:26:42.712Z,80.09
2022-12-14T23:29:29.459Z,79.93
2022-12-14T23:32:14.739Z,79.76
2022-12-14T23:35:00.135Z,79.85
2022-12-14T23:37:45.243Z,79.87
2022-12-14T23:40:30.734Z,79.66
2022-12-14T23:43:16.281Z,79.18
2022-12-14T23:46:02.822Z,79.75
2022-12-14T23:48:48.113Z,79.60
2022-12-14T23:51:33.482Z,79.85
2022-12-14T23:54:19.017Z,79.93
2022-12-14T23:57:04.298Z,79.50
2022-12-14T23:59:49.947Z,79.95
